createdAt,value
2022-11-19T00:00:50.214Z,677.3
2022-11-19T00:01:52.635Z,677.4
2022-11-19T00:02:54.866Z,677.7
2022-11-19T00:03:57.353Z,677.3
2022-11-19T00:04:59.359Z,677.4
2022-11-19T00:06:01.844Z,677.4
2022-11-19T00:07:04.356Z,677.4
2022-11-19T00:08:06.312Z,677.9
2022-11-19T00:09:08.513Z,678.1
2022-11-19T00:10:10.723Z,678
2022-11-19T00:11:13.220Z,678
2022-11-19T00:12:15.702Z,678.9
2022-11-19T00:13:18.294Z,678.6
2022-11-19T00:14:20.492Z,678.9
2022-11-19T00:15:22.974Z,679.2
2022-11-19T00:16:25.453Z,679
2022-11-19T00:17:27.655Z,678.8
2022-11-19T00:18:29.850Z,679.2
2022-11-19T00:19:32.052Z,679
2022-11-19T00:20:34.606Z,679.2
2022-11-19T00:21:37.228Z,679.2
2022-11-19T00:22:39.171Z,679.3
2022-11-19T00:23:41.084Z,679.2
2022-11-19T00:24:43.296Z,679.8
2022-11-19T00:25:45.495Z,679.6
2022-11-19T00:26:48.002Z,679.5
2022-11-19T00:27:50.486Z,679.4
2022-11-19T00:28:52.961Z,679.1
2022-11-19T00:29:55.444Z,679.3
2022-11-19T00:30:57.358Z,679.4
2022-11-19T00:31:59.561Z,679.2
2022-11-19T00:33:02.036Z,679.5
2022-11-19T00:34:04.513Z,679.3
2022-11-19T00:35:06.716Z,679.8
2022-11-19T00:36:09.299Z,679.3
2022-11-19T00:37:11.498Z,679.2
2022-11-19T00:38:13.696Z,679.2
2022-11-19T00:39:15.609Z,679.2
2022-11-19T00:40:18.091Z,679
2022-11-19T00:41:20.287Z,678.9
2022-11-19T00:42:22.522Z,679.5
2022-11-19T00:43:24.996Z,678.8
2022-11-19T00:44:29.432Z,678.7
2022-11-19T00:45:34.174Z,678.9
2022-11-19T00:46:36.506Z,679.2
2022-11-19T00:47:39.009Z,678.9
2022-11-19T00:48:41.227Z,678.8
2022-11-19T00:49:43.438Z,679
2022-11-19T00:50:45.914Z,678.8
2022-11-19T00:51:48.568Z,678.9
2022-11-19T00:52:50.220Z,678.9
2022-11-19T00:53:52.431Z,679
2022-11-19T00:54:54.932Z,678.7
2022-11-19T00:55:57.407Z,679
2022-11-19T00:56:59.612Z,679.1
2022-11-19T00:58:01.846Z,679
2022-11-19T00:59:04.343Z,678.9
2022-11-19T01:00:06.273Z,678.8
2022-11-19T01:01:08.824Z,679.1
2022-11-19T01:02:11.342Z,678.8
2022-11-19T01:03:13.818Z,678.9
2022-11-19T01:04:16.300Z,679.1
2022-11-19T01:05:18.498Z,679
2022-11-19T01:06:21.733Z,679.3
2022-11-19T01:07:24.586Z,679.4
2022-11-19T01:08:26.841Z,679.1
2022-11-19T01:09:29.311Z,679.1
2022-11-19T01:10:31.783Z,678.4
2022-11-19T01:11:34.354Z,678.4
2022-11-19T01:12:36.570Z,678.6
2022-11-19T01:13:38.785Z,678.4
2022-11-19T01:14:41.255Z,677.9
2022-11-19T01:15:43.452Z,678.3
2022-11-19T01:16:45.955Z,678.2
2022-11-19T01:17:48.444Z,677.9
2022-11-19T01:18:50.645Z,678.1
2022-11-19T01:19:53.120Z,678
2022-11-19T01:20:55.638Z,678.3
2022-11-19T01:21:58.137Z,677.9
2022-11-19T01:23:00.708Z,677.8
2022-11-19T01:24:02.912Z,677.7
2022-11-19T01:25:05.115Z,678.1
2022-11-19T01:26:07.313Z,678.1
2022-11-19T01:27:09.787Z,678
2022-11-19T01:28:12.269Z,678.3
2022-11-19T01:29:14.506Z,678.1
2022-11-19T01:30:16.998Z,677.9
2022-11-19T01:31:19.487Z,678.2
2022-11-19T01:32:21.712Z,677.9
2022-11-19T01:33:23.488Z,678.1
2022-11-19T01:34:25.684Z,678.1
2022-11-19T01:35:28.174Z,678.3
2022-11-19T01:36:30.392Z,677.8
2022-11-19T01:37:32.900Z,677.2
2022-11-19T01:38:35.197Z,678.1
2022-11-19T01:39:36.847Z,677.8
2022-11-19T01:40:39.331Z,678
2022-11-19T01:41:41.808Z,677.8
2022-11-19T01:42:44.305Z,677.9
2022-11-19T01:43:46.772Z,677.8
2022-11-19T01:44:49.292Z,677.8
2022-11-19T01:45:51.492Z,677.9
2022-11-19T01:46:53.976Z,677.8
2022-11-19T01:47:56.177Z,677.7
2022-11-19T01:48:58.107Z,678
2022-11-19T01:50:00.593Z,677.7
2022-11-19T01:51:03.081Z,677.6
2022-11-19T01:52:05.570Z,677.6
2022-11-19T01:53:08.052Z,677.1
2022-11-19T01:54:10.674Z,677.2
2022-11-19T01:55:12.588Z,677.4
2022-11-19T01:56:15.070Z,677.8
2022-11-19T01:57:17.268Z,677.7
2022-11-19T01:58:20.367Z,677.6
2022-11-19T01:59:24.605Z,677.8
2022-11-19T02:00:27.428Z,677.2
2022-11-19T02:01:30.159Z,677.9
2022-11-19T02:02:32.704Z,677.6
2022-11-19T02:03:35.186Z,677.6
2022-11-19T02:04:36.832Z,677.7
2022-11-19T02:05:39.039Z,677.2
2022-11-19T02:06:41.235Z,676.8
2022-11-19T02:07:43.446Z,677.7
2022-11-19T02:08:45.951Z,677.6
2022-11-19T02:09:48.537Z,677
2022-11-19T02:10:51.025Z,676.3
2022-11-19T02:11:53.497Z,676.8
2022-11-19T02:12:55.975Z,676.6
2022-11-19T02:13:58.180Z,676.7
2022-11-19T02:15:00.672Z,676.9
2022-11-19T02:16:03.170Z,676.4
2022-11-19T02:17:05.641Z,676
2022-11-19T02:18:08.109Z,676.5
2022-11-19T02:19:10.306Z,676.5
2022-11-19T02:20:12.782Z,676.9
2022-11-19T02:21:14.968Z,676.4
2022-11-19T02:22:17.454Z,676.4
2022-11-19T02:23:19.928Z,676.3
2022-11-19T02:24:22.408Z,676.9
2022-11-19T02:25:25.066Z,676.5
2022-11-19T02:26:27.538Z,676.5
2022-11-19T02:27:29.722Z,676.2
2022-11-19T02:28:32.214Z,675.9
2022-11-19T02:29:34.680Z,676.6
2022-11-19T02:30:37.180Z,676.4
2022-11-19T02:31:39.675Z,676.6
2022-11-19T02:32:41.588Z,676.2
2022-11-19T02:33:44.090Z,676.4
2022-11-19T02:34:46.578Z,676.2
2022-11-19T02:35:49.080Z,676
2022-11-19T02:36:51.552Z,676.7
2022-11-19T02:37:54.043Z,676.9
2022-11-19T02:38:56.524Z,677
2022-11-19T02:39:58.725Z,676.7
2022-11-19T02:41:01.008Z,676.3
2022-11-19T02:42:03.484Z,677
2022-11-19T02:43:05.978Z,676.7
2022-11-19T02:44:08.166Z,676.8
2022-11-19T02:45:10.364Z,676.6
2022-11-19T02:46:12.859Z,675.8
2022-11-19T02:47:15.345Z,675.9
2022-11-19T02:48:17.550Z,675.9
2022-11-19T02:49:21.795Z,676.1
2022-11-19T02:50:24.017Z,675.9
2022-11-19T02:51:26.198Z,675.9
2022-11-19T02:52:28.708Z,675.9
2022-11-19T02:53:31.181Z,675.8
2022-11-19T02:54:33.387Z,676.2
2022-11-19T02:55:35.861Z,675.8
2022-11-19T02:56:38.433Z,676
2022-11-19T02:57:40.896Z,675.8
2022-11-19T02:58:43.378Z,675.8
2022-11-19T02:59:45.325Z,676.1
2022-11-19T03:00:46.982Z,675.7
2022-11-19T03:01:49.438Z,675.9
2022-11-19T03:02:51.767Z,675.7
2022-11-19T03:03:53.978Z,675.4
2022-11-19T03:04:55.912Z,674.9
2022-11-19T03:05:58.378Z,674.9
2022-11-19T03:07:01.175Z,675.2
2022-11-19T03:08:03.657Z,674.8
2022-11-19T03:09:05.315Z,674.9
2022-11-19T03:10:07.800Z,674.2
2022-11-19T03:11:10.005Z,675
2022-11-19T03:12:12.620Z,674.9
2022-11-19T03:13:15.105Z,674.3
2022-11-19T03:14:17.573Z,674.6
2022-11-19T03:15:20.059Z,674.2
2022-11-19T03:16:22.540Z,673.9
2022-11-19T03:17:25.022Z,673.8
2022-11-19T03:18:27.267Z,673.8
2022-11-19T03:19:29.479Z,674
2022-11-19T03:20:31.951Z,673.9
2022-11-19T03:21:34.261Z,673.7
2022-11-19T03:22:35.899Z,673.7
2022-11-19T03:23:38.099Z,673.6
2022-11-19T03:24:40.578Z,673.7
2022-11-19T03:25:41.944Z,673.3
2022-11-19T03:26:44.415Z,673.6
2022-11-19T03:27:47.002Z,673.2
2022-11-19T03:28:49.208Z,673.4
2022-11-19T03:29:51.693Z,673
2022-11-19T03:30:53.348Z,672.9
2022-11-19T03:31:55.823Z,673
2022-11-19T03:32:58.041Z,672.8
2022-11-19T03:34:00.602Z,673
2022-11-19T03:35:02.801Z,672.9
2022-11-19T03:36:04.992Z,672.9
2022-11-19T03:37:06.638Z,673
2022-11-19T03:38:09.136Z,673.1
2022-11-19T03:39:11.339Z,673.2
2022-11-19T03:40:13.808Z,673.2
2022-11-19T03:41:15.993Z,673.1
2022-11-19T03:42:18.468Z,673
2022-11-19T03:43:21.140Z,673.4
2022-11-19T03:44:23.348Z,672.7
2022-11-19T03:45:25.822Z,673
2022-11-19T03:46:28.015Z,673.1
2022-11-19T03:47:30.502Z,673
2022-11-19T03:48:32.974Z,673
2022-11-19T03:49:35.488Z,672.7
2022-11-19T03:50:37.973Z,673
2022-11-19T03:51:40.449Z,672.9
2022-11-19T03:52:42.935Z,672.6
2022-11-19T03:53:45.415Z,673
2022-11-19T03:54:47.630Z,672.9
2022-11-19T03:55:49.837Z,672.6
2022-11-19T03:56:52.319Z,672.6
2022-11-19T03:57:54.794Z,672.5
2022-11-19T03:58:57.387Z,672.5
2022-11-19T03:59:59.887Z,672.8
2022-11-19T04:01:02.417Z,672.6
2022-11-19T04:02:05.177Z,672.8
2022-11-19T04:03:07.676Z,673.2
2022-11-19T04:04:10.163Z,673.2
2022-11-19T04:05:12.406Z,673.3
2022-11-19T04:06:14.591Z,673
2022-11-19T04:07:17.117Z,673.2
2022-11-19T04:08:19.331Z,672.7
2022-11-19T04:09:23.250Z,672.9
2022-11-19T04:10:25.730Z,672.6
2022-11-19T04:12:28.702Z,672.7
2022-11-19T04:13:31.190Z,672.3
2022-11-19T04:14:33.764Z,672.3
2022-11-19T04:15:36.244Z,672.6
2022-11-19T04:16:38.470Z,672.2
2022-11-19T04:17:40.981Z,672.6
2022-11-19T04:18:42.894Z,672.4
2022-11-19T04:19:45.127Z,672.4
2022-11-19T04:20:47.368Z,672.3
2022-11-19T04:21:49.851Z,671.7
2022-11-19T04:22:52.332Z,672
2022-11-19T04:23:54.809Z,671.6
2022-11-19T04:24:56.714Z,671.7
2022-11-19T04:25:59.195Z,671.8
2022-11-19T04:27:01.413Z,672.2
2022-11-19T04:28:03.917Z,672.4
2022-11-19T04:29:06.387Z,672.4
2022-11-19T04:30:08.964Z,672.1
2022-11-19T04:32:16.158Z,672.1
2022-11-19T04:33:18.647Z,672.3
2022-11-19T04:34:20.852Z,672.5
2022-11-19T04:35:23.367Z,672.3
2022-11-19T04:36:25.877Z,672
2022-11-19T04:37:28.355Z,672.3
2022-11-19T04:38:30.560Z,672.4
2022-11-19T04:39:33.047Z,672.3
2022-11-19T04:40:35.517Z,672.4
2022-11-19T04:41:38.001Z,672.3
2022-11-19T04:42:40.477Z,672.4
2022-11-19T04:43:42.678Z,672.3
2022-11-19T04:44:45.151Z,672.3
2022-11-19T04:45:47.738Z,671.8
2022-11-19T04:46:50.210Z,671.8
2022-11-19T04:47:52.684Z,672.5
2022-11-19T04:48:54.899Z,672.1
2022-11-19T04:49:57.080Z,672.1
2022-11-19T04:50:59.566Z,671.8
2022-11-19T04:52:01.487Z,671.9
2022-11-19T04:53:03.973Z,671.6
2022-11-19T04:54:06.455Z,671.9
2022-11-19T04:55:08.927Z,671.7
2022-11-19T04:56:11.101Z,671.5
2022-11-19T04:57:13.303Z,671.4
2022-11-19T04:58:15.873Z,671.4
2022-11-19T04:59:19.815Z,671.2
2022-11-19T05:00:22.575Z,670.9
2022-11-19T05:01:25.632Z,671.1
2022-11-19T05:02:28.142Z,671
2022-11-19T05:03:30.623Z,671.1
2022-11-19T05:04:33.105Z,670.9
2022-11-19T05:05:35.291Z,670.9
2022-11-19T05:06:37.473Z,670.9
2022-11-19T05:07:40.469Z,670.8
2022-11-19T05:08:42.982Z,670.3
2022-11-19T05:09:45.460Z,670.1
2022-11-19T05:10:47.940Z,670.1
2022-11-19T05:11:50.143Z,670.3
2022-11-19T05:12:52.069Z,670.1
2022-11-19T05:13:54.547Z,670.2
2022-11-19T05:14:57.024Z,669.7
2022-11-19T05:15:58.928Z,670.3
2022-11-19T05:17:01.480Z,670.1
2022-11-19T05:18:03.701Z,670.2
2022-11-19T05:19:05.621Z,669.8
2022-11-19T05:20:08.117Z,669.4
2022-11-19T05:21:10.328Z,669.7
2022-11-19T05:22:12.803Z,669.4
2022-11-19T05:23:15.319Z,669.7
2022-11-19T05:24:17.540Z,669.3
2022-11-19T05:25:19.744Z,669.3
2022-11-19T05:26:22.213Z,669.7
2022-11-19T05:27:24.742Z,669.8
2022-11-19T05:29:32.250Z,669.4
2022-11-19T05:30:34.477Z,669.4
2022-11-19T05:31:36.677Z,669.3
2022-11-19T05:32:39.274Z,669.2
2022-11-19T05:33:41.197Z,669.5
2022-11-19T05:34:43.399Z,669.1
2022-11-19T05:35:45.884Z,669.3
2022-11-19T05:36:48.089Z,669.4
2022-11-19T05:37:50.288Z,669.6
2022-11-19T05:38:52.783Z,669.5
2022-11-19T05:39:54.963Z,669.4
2022-11-19T05:40:57.482Z,669.1
2022-11-19T05:41:59.953Z,669.4
2022-11-19T05:43:02.154Z,669.2
2022-11-19T05:44:04.353Z,669.8
2022-11-19T05:45:06.835Z,669.9
2022-11-19T05:46:09.308Z,669.6
2022-11-19T05:47:11.785Z,670.1
2022-11-19T05:48:14.141Z,670
2022-11-19T05:49:16.861Z,670.1
2022-11-19T05:50:19.378Z,670.2
2022-11-19T05:51:21.013Z,670.2
2022-11-19T05:52:23.495Z,669.6
2022-11-19T05:53:25.964Z,669.9
2022-11-19T05:54:28.661Z,669.7
2022-11-19T05:55:30.875Z,670
2022-11-19T05:56:33.351Z,670.2
2022-11-19T05:57:35.532Z,669.9
2022-11-19T05:58:38.149Z,670.2
2022-11-19T06:00:45.349Z,669.9
2022-11-19T06:01:47.840Z,670.1
2022-11-19T06:02:50.594Z,670
2022-11-19T06:03:53.177Z,669.6
2022-11-19T06:04:55.654Z,670.1
2022-11-19T06:05:58.128Z,669.7
2022-11-19T06:07:00.416Z,669.8
2022-11-19T06:08:02.651Z,669.7
2022-11-19T06:09:04.856Z,669.7
2022-11-19T06:10:07.079Z,669.3
2022-11-19T06:11:09.289Z,669.7
2022-11-19T06:12:11.501Z,669.4
2022-11-19T06:13:13.700Z,669.8
2022-11-19T06:14:15.886Z,669.7
2022-11-19T06:15:18.088Z,669.6
2022-11-19T06:16:20.573Z,669.8
2022-11-19T06:17:22.514Z,669.4
2022-11-19T06:18:24.177Z,669.6
2022-11-19T06:19:26.774Z,669.8
2022-11-19T06:20:29.248Z,670
2022-11-19T06:21:31.808Z,670.4
2022-11-19T06:22:34.025Z,669.9
2022-11-19T06:23:36.516Z,669.6
2022-11-19T06:24:38.985Z,669.6
2022-11-19T06:25:41.495Z,669.6
2022-11-19T06:26:43.964Z,669.6
2022-11-19T06:27:46.454Z,669.5
2022-11-19T06:28:48.929Z,669.5
2022-11-19T06:30:56.138Z,669.4
2022-11-19T06:31:58.063Z,669.5
2022-11-19T06:33:00.544Z,669.2
2022-11-19T06:34:03.065Z,669
2022-11-19T06:35:05.628Z,669.1
2022-11-19T06:36:08.097Z,669.2
2022-11-19T06:37:10.769Z,669
2022-11-19T06:38:13.449Z,669.1
2022-11-19T06:39:15.937Z,669.2
2022-11-19T06:40:18.140Z,669.1
2022-11-19T06:41:20.369Z,669
2022-11-19T06:42:22.853Z,669
2022-11-19T06:43:25.324Z,669.2
2022-11-19T06:44:27.804Z,668.9
2022-11-19T06:45:30.282Z,669.4
2022-11-19T06:46:32.768Z,669
2022-11-19T06:47:35.262Z,668.5
2022-11-19T06:48:36.906Z,668.3
2022-11-19T06:49:38.838Z,668.4
2022-11-19T06:50:41.110Z,668
2022-11-19T06:51:43.304Z,668.2
2022-11-19T06:52:45.788Z,668.1
2022-11-19T06:53:48.004Z,668.2
2022-11-19T06:54:49.971Z,667.9
2022-11-19T06:55:52.457Z,667.9
2022-11-19T06:56:54.953Z,667.7
2022-11-19T06:57:57.431Z,667.6
2022-11-19T06:58:59.932Z,667.9
2022-11-19T07:00:02.156Z,666.9
2022-11-19T07:01:04.624Z,667.2
2022-11-19T07:02:07.289Z,667.1
2022-11-19T07:03:09.530Z,667.3
2022-11-19T07:04:12.006Z,666.9
2022-11-19T07:05:14.479Z,667.3
2022-11-19T07:06:17.038Z,666.7
2022-11-19T07:07:19.764Z,666.5
2022-11-19T07:08:22.016Z,666.5
2022-11-19T07:09:24.233Z,666.2
2022-11-19T07:10:26.435Z,666.7
2022-11-19T07:11:28.636Z,666.3
2022-11-19T07:12:31.147Z,666.9
2022-11-19T07:13:33.347Z,666.3
2022-11-19T07:14:35.563Z,666.5
2022-11-19T07:15:38.043Z,666.4
2022-11-19T07:16:40.286Z,666.4
2022-11-19T07:17:42.500Z,666.1
2022-11-19T07:18:44.980Z,666.3
2022-11-19T07:19:47.466Z,666.2
2022-11-19T07:20:50.132Z,665.7
2022-11-19T07:21:52.853Z,666.1
2022-11-19T07:24:00.105Z,665.7
2022-11-19T07:25:02.323Z,666.1
2022-11-19T07:26:04.544Z,665.4
2022-11-19T07:27:07.023Z,665.8
2022-11-19T07:28:09.626Z,665.5
2022-11-19T07:29:11.849Z,666
2022-11-19T07:30:14.368Z,665.5
2022-11-19T07:31:16.984Z,665.4
2022-11-19T07:32:19.270Z,665.4
2022-11-19T07:33:21.836Z,665.5
2022-11-19T07:34:24.087Z,665.2
2022-11-19T07:35:25.736Z,665.5
2022-11-19T07:36:27.676Z,665
2022-11-19T07:37:29.996Z,665.1
2022-11-19T07:39:37.489Z,664.8
2022-11-19T07:40:40.006Z,664.6
2022-11-19T07:41:42.246Z,664.7
2022-11-19T07:42:44.771Z,664.9
2022-11-19T07:43:47.337Z,664.4
2022-11-19T07:45:54.567Z,664.4
2022-11-19T07:46:57.068Z,664.1
2022-11-19T07:47:59.561Z,664.2
2022-11-19T07:49:01.802Z,664
2022-11-19T07:50:04.035Z,664.2
2022-11-19T07:51:06.227Z,664.3
2022-11-19T07:52:08.159Z,664
2022-11-19T07:53:10.491Z,664
2022-11-19T07:54:13.024Z,663.9
2022-11-19T07:55:29.931Z,663.6
2022-11-19T07:56:32.231Z,663.8
2022-11-19T07:57:34.468Z,663.9
2022-11-19T07:58:36.980Z,663.8
2022-11-19T07:59:38.963Z,664
2022-11-19T08:00:41.473Z,664.2
2022-11-19T08:01:44.360Z,663.8
2022-11-19T08:02:46.732Z,664.3
2022-11-19T08:04:53.958Z,664.5
2022-11-19T08:05:56.199Z,664
2022-11-19T08:06:58.800Z,664.1
2022-11-19T08:08:01.078Z,664.1
2022-11-19T08:09:03.822Z,664.2
2022-11-19T08:10:06.052Z,664.3
2022-11-19T08:11:08.280Z,664.4
2022-11-19T08:12:10.770Z,663.9
2022-11-19T08:13:13.249Z,664.4
2022-11-19T08:14:15.736Z,664.1
2022-11-19T08:15:18.234Z,664
2022-11-19T08:16:20.148Z,663.9
2022-11-19T08:17:22.712Z,663.8
2022-11-19T08:19:29.622Z,663.6
2022-11-19T08:20:31.552Z,663.3
2022-11-19T08:21:33.771Z,663.3
2022-11-19T08:22:36.685Z,662.9
2022-11-19T08:23:39.462Z,663.4
2022-11-19T08:24:42.154Z,662.9
2022-11-19T08:25:44.398Z,662.8
2022-11-19T08:26:46.928Z,662.6
2022-11-19T08:27:49.463Z,662.8
2022-11-19T08:28:51.969Z,663
2022-11-19T08:29:54.484Z,663
2022-11-19T08:30:57.196Z,663.2
2022-11-19T08:31:59.399Z,662.9
2022-11-19T08:33:01.597Z,662.8
2022-11-19T08:34:03.838Z,662.7
2022-11-19T08:35:06.441Z,662.9
2022-11-19T08:36:08.664Z,663.2
2022-11-19T08:37:11.174Z,663.2
2022-11-19T08:38:13.421Z,663.1
2022-11-19T08:39:15.640Z,663.3
2022-11-19T08:40:18.235Z,663.4
2022-11-19T08:41:20.764Z,663.3
2022-11-19T08:42:22.998Z,663.2
2022-11-19T08:43:25.481Z,663.6
2022-11-19T08:44:27.692Z,663.6
2022-11-19T08:45:29.907Z,663.5
2022-11-19T08:46:32.432Z,663.8
2022-11-19T08:47:35.097Z,663.8
2022-11-19T08:48:38.319Z,663.2
2022-11-19T08:49:40.665Z,663.3
2022-11-19T08:50:43.270Z,662.8
2022-11-19T08:51:46.100Z,663.4
2022-11-19T08:52:48.419Z,663.3
2022-11-19T08:53:50.994Z,662.9
2022-11-19T08:54:53.044Z,663.5
2022-11-19T08:55:55.763Z,663.4
2022-11-19T08:56:58.274Z,663.4
2022-11-19T08:58:00.783Z,663.1
2022-11-19T08:59:05.214Z,663
2022-11-19T09:00:08.113Z,662.8
2022-11-19T09:01:10.812Z,662.8
2022-11-19T09:02:13.107Z,662.5
2022-11-19T09:03:15.327Z,662.7
2022-11-19T09:04:19.202Z,663
2022-11-19T09:05:21.314Z,662.8
2022-11-19T09:06:23.821Z,662.1
2022-11-19T09:07:26.300Z,662.5
2022-11-19T09:08:28.496Z,662.3
2022-11-19T09:09:31.013Z,662.5
2022-11-19T09:10:33.471Z,662.2
2022-11-19T09:12:41.059Z,662.6
2022-11-19T09:13:43.362Z,662.3
2022-11-19T09:14:45.626Z,662.4
2022-11-19T09:15:48.153Z,662.2
2022-11-19T09:16:50.139Z,662.2
2022-11-19T09:17:52.664Z,662.2
2022-11-19T09:18:54.885Z,662
2022-11-19T09:19:57.401Z,662.6
2022-11-19T09:21:00.162Z,661.9
2022-11-19T09:22:01.827Z,662
2022-11-19T09:23:03.841Z,661.9
2022-11-19T09:24:06.074Z,661.8
2022-11-19T09:25:08.300Z,661.8
2022-11-19T09:26:10.489Z,661.9
2022-11-19T09:27:12.971Z,661.8
2022-11-19T09:28:15.578Z,661.7
2022-11-19T09:29:17.950Z,661.6
2022-11-19T09:30:19.600Z,661.7
2022-11-19T09:31:22.129Z,661.2
2022-11-19T09:33:29.619Z,660.9
2022-11-19T09:34:31.818Z,660.5
2022-11-19T09:35:35.446Z,661
2022-11-19T09:36:37.945Z,660.3
2022-11-19T09:37:40.424Z,660.7
2022-11-19T09:38:42.628Z,660.1
2022-11-19T09:39:44.860Z,660.5
2022-11-19T09:40:46.262Z,660.4
2022-11-19T09:41:48.538Z,660.5
2022-11-19T09:42:50.182Z,660.3
2022-11-19T09:43:52.853Z,659.8
2022-11-19T09:44:54.792Z,660.2
2022-11-19T09:45:56.739Z,660.3
2022-11-19T09:46:59.219Z,659.3
2022-11-19T09:48:01.709Z,659.6
2022-11-19T09:49:03.921Z,659.6
2022-11-19T09:50:06.419Z,659.6
2022-11-19T09:51:08.649Z,659.4
2022-11-19T09:52:10.881Z,659.3
2022-11-19T09:53:13.375Z,659
2022-11-19T09:54:15.624Z,658.2
2022-11-19T09:55:18.149Z,658.4
2022-11-19T09:56:20.380Z,659.1
2022-11-19T09:57:22.605Z,658.8
2022-11-19T09:58:24.840Z,659
2022-11-19T09:59:27.424Z,658.6
2022-11-19T10:00:29.665Z,658.7
2022-11-19T10:01:31.647Z,658.9
2022-11-19T10:02:34.171Z,659
2022-11-19T10:03:36.443Z,658.7
2022-11-19T10:04:38.985Z,658.9
2022-11-19T10:05:40.962Z,658.3
2022-11-19T10:06:43.197Z,658.9
2022-11-19T10:07:45.674Z,659
2022-11-19T10:08:48.166Z,659.7
2022-11-19T10:09:50.081Z,659
2022-11-19T10:10:52.572Z,659.2
2022-11-19T10:11:54.496Z,659.2
2022-11-19T10:12:56.980Z,659.1
2022-11-19T10:13:59.475Z,659.3
2022-11-19T10:15:02.150Z,659.4
2022-11-19T10:16:04.638Z,659.8
2022-11-19T10:17:06.868Z,659.2
2022-11-19T10:18:08.787Z,659.9
2022-11-19T10:19:11.651Z,659.6
2022-11-19T10:20:13.917Z,659.6
2022-11-19T10:21:16.127Z,659.7
2022-11-19T10:22:18.341Z,659.5
2022-11-19T10:23:20.854Z,659.5
2022-11-19T10:24:24.507Z,659.3
2022-11-19T10:25:26.734Z,659.3
2022-11-19T10:26:28.970Z,659.2
2022-11-19T10:27:31.540Z,659.6
2022-11-19T10:28:33.834Z,659.7
2022-11-19T10:29:36.338Z,659.5
2022-11-19T10:30:39.064Z,659.8
2022-11-19T10:31:41.275Z,659.6
2022-11-19T10:32:43.246Z,659.8
2022-11-19T10:33:45.272Z,659.9
2022-11-19T10:34:47.770Z,659.7
2022-11-19T10:35:50.288Z,659.6
2022-11-19T10:36:52.510Z,659.2
2022-11-19T10:37:55.002Z,659.5
2022-11-19T10:38:56.979Z,659.6
2022-11-19T10:39:58.966Z,660
2022-11-19T10:41:00.932Z,659.8
2022-11-19T10:42:02.886Z,660.1
2022-11-19T10:43:05.142Z,660.5
2022-11-19T10:44:07.092Z,660.2
2022-11-19T10:45:09.024Z,660.1
2022-11-19T10:46:11.323Z,660.3
2022-11-19T10:47:13.536Z,660.3
2022-11-19T10:48:16.127Z,660.1
2022-11-19T10:49:20.408Z,660.2
2022-11-19T10:50:22.807Z,660.5
2022-11-19T10:51:24.799Z,660.4
2022-11-19T10:52:27.303Z,660.5
2022-11-19T10:53:28.955Z,660.5
2022-11-19T10:54:31.448Z,660.6
2022-11-19T10:55:33.696Z,660.6
2022-11-19T10:56:35.645Z,660.7
2022-11-19T10:57:37.563Z,660.8
2022-11-19T10:58:39.761Z,660.9
2022-11-19T10:59:42.264Z,661.5
2022-11-19T11:00:44.529Z,660.9
2022-11-19T11:01:47.645Z,661.3
2022-11-19T11:02:50.240Z,661
2022-11-19T11:03:52.549Z,661.2
2022-11-19T11:04:54.780Z,661.3
2022-11-19T11:05:56.968Z,661.5
2022-11-19T11:07:00.212Z,661.7
2022-11-19T11:08:02.506Z,662.1
2022-11-19T11:09:05.055Z,661.6
2022-11-19T11:10:07.565Z,662.5
2022-11-19T11:11:09.767Z,662.3
2022-11-19T11:12:12.320Z,662.5
2022-11-19T11:13:14.804Z,662.8
2022-11-19T11:14:17.119Z,662.7
2022-11-19T11:15:18.792Z,662.9
2022-11-19T11:16:20.995Z,663.1
2022-11-19T11:17:23.572Z,663.8
2022-11-19T11:18:26.069Z,663.4
2022-11-19T11:19:27.978Z,663.1
2022-11-19T11:20:30.240Z,663.4
2022-11-19T11:21:32.730Z,663
2022-11-19T11:22:35.028Z,662.7
2022-11-19T11:23:37.554Z,662.6
2022-11-19T11:24:39.498Z,662.8
2022-11-19T11:25:42.015Z,662.5
2022-11-19T11:26:44.529Z,662.5
2022-11-19T11:27:46.444Z,662.5
2022-11-19T11:28:48.382Z,662.8
2022-11-19T11:29:50.585Z,662.7
2022-11-19T11:30:53.071Z,662.4
2022-11-19T11:31:55.571Z,662.6
2022-11-19T11:32:57.882Z,662.3
2022-11-19T11:34:00.384Z,662.7
2022-11-19T11:36:07.691Z,662.5
2022-11-19T11:37:10.188Z,662.2
2022-11-19T11:38:12.713Z,662.5
2022-11-19T11:39:15.223Z,662.5
2022-11-19T11:40:17.446Z,662.5
2022-11-19T11:42:24.925Z,662.4
2022-11-19T11:43:27.420Z,662.5
2022-11-19T11:44:29.649Z,662.8
2022-11-19T11:45:32.158Z,662.7
2022-11-19T11:46:34.109Z,663.1
2022-11-19T11:47:36.340Z,663
2022-11-19T11:48:39.024Z,663.4
2022-11-19T11:49:41.510Z,663.1
2022-11-19T11:50:43.733Z,662.7
2022-11-19T11:51:45.949Z,663.7
2022-11-19T11:52:48.450Z,663.7
2022-11-19T11:53:50.988Z,664
2022-11-19T11:54:53.195Z,664
2022-11-19T11:55:55.717Z,663.8
2022-11-19T11:56:58.250Z,664.4
2022-11-19T11:58:00.755Z,664.6
2022-11-19T11:59:03.297Z,664.2
2022-11-19T12:00:05.543Z,664.7
2022-11-19T12:02:15.219Z,665
2022-11-19T12:03:17.473Z,664.8
2022-11-19T12:04:20.142Z,665
2022-11-19T12:05:22.369Z,665.5
2022-11-19T12:06:24.893Z,666.1
2022-11-19T12:07:27.670Z,665.4
2022-11-19T12:08:30.183Z,665.8
2022-11-19T12:09:32.152Z,665.6
2022-11-19T12:10:34.402Z,666.2
2022-11-19T12:11:36.624Z,665.8
2022-11-19T12:12:39.143Z,664.6
2022-11-19T12:13:41.641Z,665.6
2022-11-19T12:14:43.855Z,665
2022-11-19T12:15:46.349Z,665.4
2022-11-19T12:16:48.854Z,665.1
2022-11-19T12:17:51.366Z,665
2022-11-19T12:18:53.857Z,665.6
2022-11-19T12:19:56.492Z,666.3
2022-11-19T12:20:59.023Z,666.4
2022-11-19T12:22:01.238Z,666.1
2022-11-19T12:23:03.719Z,666.2
2022-11-19T12:24:06.205Z,666.2
2022-11-19T12:25:08.433Z,666.1
2022-11-19T12:26:10.912Z,666.3
2022-11-19T12:27:13.411Z,666.5
2022-11-19T12:28:15.631Z,666.4
2022-11-19T12:29:19.380Z,666.5
2022-11-19T12:30:22.077Z,666.1
2022-11-19T12:32:29.589Z,665.9
2022-11-19T12:33:32.102Z,666
2022-11-19T12:34:34.320Z,666
2022-11-19T12:35:36.928Z,665.6
2022-11-19T12:36:39.156Z,665.8
2022-11-19T12:37:41.362Z,665.8
2022-11-19T12:38:43.856Z,665.2
2022-11-19T12:39:45.780Z,665.5
2022-11-19T12:40:48.055Z,665.6
2022-11-19T12:41:50.257Z,665.5
2022-11-19T12:42:52.167Z,665.7
2022-11-19T12:43:54.107Z,665.5
2022-11-19T12:44:56.319Z,664.9
2022-11-19T12:45:58.505Z,665
2022-11-19T12:47:01.011Z,665.3
2022-11-19T12:48:03.211Z,664.8
2022-11-19T12:49:05.438Z,664.8
2022-11-19T12:50:07.922Z,664.8
2022-11-19T12:51:10.508Z,664.7
2022-11-19T12:52:12.442Z,664.8
2022-11-19T12:53:14.947Z,664.5
2022-11-19T12:55:22.155Z,664.3
2022-11-19T12:56:24.502Z,664.9
2022-11-19T12:57:26.426Z,664.6
2022-11-19T12:58:28.633Z,665
2022-11-19T12:59:31.126Z,664.6
2022-11-19T13:01:38.918Z,665.5
2022-11-19T13:02:41.883Z,665.6
2022-11-19T13:03:44.626Z,665.4
2022-11-19T13:04:46.933Z,665.4
2022-11-19T13:05:49.499Z,665.5
2022-11-19T13:06:51.944Z,665.3
2022-11-19T13:07:54.443Z,665.4
2022-11-19T13:08:56.976Z,665.6
2022-11-19T13:09:59.469Z,665
2022-11-19T13:11:01.422Z,665.4
2022-11-19T13:12:03.954Z,665.1
2022-11-19T13:13:06.472Z,665.4
2022-11-19T13:14:08.442Z,665
2022-11-19T13:15:10.932Z,665
2022-11-19T13:16:13.439Z,664.9
2022-11-19T13:17:15.368Z,665
2022-11-19T13:18:17.866Z,664.8
2022-11-19T13:19:22.287Z,664.9
2022-11-19T13:20:25.088Z,665.3
2022-11-19T13:21:27.323Z,665.5
2022-11-19T13:22:29.903Z,665.1
2022-11-19T13:23:32.403Z,665.7
2022-11-19T13:24:34.340Z,665.6
2022-11-19T13:25:36.277Z,665.6
2022-11-19T13:26:38.237Z,665.6
2022-11-19T13:27:40.796Z,665.2
2022-11-19T13:28:43.052Z,665.3
2022-11-19T13:29:45.569Z,665.1
2022-11-19T13:30:48.068Z,665.3
2022-11-19T13:31:50.564Z,665.1
2022-11-19T13:32:53.072Z,665.2
2022-11-19T13:33:55.119Z,665.1
2022-11-19T13:34:57.343Z,665
2022-11-19T13:35:59.833Z,665
2022-11-19T13:37:02.329Z,665.5
2022-11-19T13:38:04.913Z,665.6
2022-11-19T13:39:07.413Z,665.4
2022-11-19T13:40:09.941Z,665.8
2022-11-19T13:41:11.928Z,665.9
2022-11-19T13:42:14.408Z,666.1
2022-11-19T13:44:21.897Z,665.8
2022-11-19T13:45:24.396Z,665.7
2022-11-19T13:46:26.608Z,666
2022-11-19T13:47:28.531Z,665.6
2022-11-19T13:48:31.042Z,666.3
2022-11-19T13:49:32.987Z,666.1
2022-11-19T13:50:35.220Z,666.1